createdAt,value
2023-04-16T00:00:50.947Z,100248.54
2023-04-16T00:03:19.703Z,100248.44
2023-04-16T00:05:47.957Z,100248.73
2023-04-16T00:08:16.000Z,100251.13
2023-04-16T00:10:44.160Z,100253.95
2023-04-16T00:13:12.133Z,100251.78
2023-04-16T00:15:40.591Z,100252.03
2023-04-16T00:18:09.277Z,100255.71
2023-04-16T00:20:37.500Z,100253.61
2023-04-16T00:23:05.450Z,100253.39
2023-04-16T00:25:33.419Z,100255.94
2023-04-16T00:28:01.264Z,100252.75
2023-04-16T00:30:29.658Z,100251.39
2023-04-16T00:32:57.557Z,100252.91
2023-04-16T00:35:25.683Z,100254.85
2023-04-16T00:37:53.834Z,100254.31
2023-04-16T00:40:21.807Z,100253.84
2023-04-16T00:42:50.585Z,100254.11
2023-04-16T00:45:18.656Z,100257.73
2023-04-16T00:47:46.839Z,100256.70
2023-04-16T00:50:14.839Z,100256.95
2023-04-16T00:52:43.535Z,100262.47
2023-04-16T00:55:13.548Z,100260.31
2023-04-16T00:57:41.694Z,100260.14
2023-04-16T01:00:10.829Z,100255.58
2023-04-16T01:02:39.070Z,100257.02
2023-04-16T01:05:07.514Z,100253.95
2023-04-16T01:07:35.885Z,100259.51
2023-04-16T01:10:04.204Z,100263.08
2023-04-16T01:12:33.183Z,100264.80
2023-04-16T01:15:01.199Z,100262.39
2023-04-16T01:17:29.502Z,100265.77
2023-04-16T01:20:00.786Z,100264.56
2023-04-16T01:22:29.473Z,100269.15
2023-04-16T01:24:58.135Z,100268.91
2023-04-16T01:27:27.167Z,100266.36
2023-04-16T01:29:56.482Z,100266.52
2023-04-16T01:32:31.784Z,100260.35
2023-04-16T01:34:59.669Z,100259.40
2023-04-16T01:37:27.572Z,100256.34
2023-04-16T01:39:55.721Z,100258.65
2023-04-16T01:42:23.847Z,100260.48
2023-04-16T01:44:52.038Z,100260.73
2023-04-16T01:47:20.109Z,100260.47
2023-04-16T01:49:48.959Z,100262.12
2023-04-16T01:52:17.582Z,100263.99
2023-04-16T01:54:45.615Z,100265.77
2023-04-16T01:57:13.504Z,100264.45
2023-04-16T01:59:41.375Z,100262.33
2023-04-16T02:02:13.002Z,100262.85
2023-04-16T02:04:41.710Z,100262.74
2023-04-16T02:07:09.976Z,100263.68
2023-04-16T02:09:39.248Z,100266.15
2023-04-16T02:12:09.710Z,100266.10
2023-04-16T02:14:37.728Z,100269.80
2023-04-16T02:17:07.190Z,100271.77
2023-04-16T02:19:42.719Z,100273.61
2023-04-16T02:22:12.092Z,100271.06
2023-04-16T02:24:40.762Z,100272.80
2023-04-16T02:27:10.075Z,100277.20
2023-04-16T02:29:38.663Z,100280.74
2023-04-16T02:32:12.375Z,100287.30
2023-04-16T02:34:43.506Z,100289.91
2023-04-16T02:37:12.277Z,100288.23
2023-04-16T02:39:40.339Z,100285.20
2023-04-16T02:42:08.335Z,100285.39
2023-04-16T02:44:38.148Z,100287.38
2023-04-16T02:47:06.236Z,100291.13
2023-04-16T02:49:35.847Z,100289.20
2023-04-16T02:52:04.310Z,100290.07
2023-04-16T02:54:32.575Z,100292.10
2023-04-16T02:57:00.614Z,100294.85
2023-04-16T02:59:28.713Z,100291.70
2023-04-16T03:01:56.816Z,100295.70
2023-04-16T03:04:24.930Z,100300.09
2023-04-16T03:06:53.648Z,100301.98
2023-04-16T03:09:22.008Z,100305.50
2023-04-16T03:11:50.536Z,100304.42
2023-04-16T03:14:18.880Z,100306.20
2023-04-16T03:16:46.887Z,100310.65
2023-04-16T03:19:14.993Z,100313.67
2023-04-16T03:21:45.240Z,100313.09
2023-04-16T03:24:13.684Z,100320.34
2023-04-16T03:26:41.543Z,100319.42
2023-04-16T03:29:11.005Z,100323.75
2023-04-16T03:31:39.121Z,100322.19
2023-04-16T03:34:07.020Z,100324.04
2023-04-16T03:36:37.013Z,100323.17
2023-04-16T03:39:05.681Z,100326.27
2023-04-16T03:41:34.777Z,100330.58
2023-04-16T03:44:03.788Z,100327.90
2023-04-16T03:46:32.769Z,100328.31
2023-04-16T03:49:00.973Z,100327.24
2023-04-16T03:51:29.752Z,100329.48
2023-04-16T03:53:59.319Z,100331.98
2023-04-16T03:56:28.060Z,100340.08
2023-04-16T03:58:56.960Z,100336.99
2023-04-16T04:01:24.877Z,100340.74
2023-04-16T04:03:53.602Z,100342.71
2023-04-16T04:06:22.224Z,100342.33
2023-04-16T04:08:50.502Z,100340.77
2023-04-16T04:11:18.507Z,100342.18
2023-04-16T04:13:47.886Z,100339.41
2023-04-16T04:16:16.022Z,100341.69
2023-04-16T04:18:44.704Z,100342.84
2023-04-16T04:21:12.965Z,100341.05
2023-04-16T04:23:42.543Z,100344.95
2023-04-16T04:26:10.589Z,100343.79
2023-04-16T04:28:38.968Z,100340.57
2023-04-16T04:31:06.920Z,100338.64
2023-04-16T04:33:35.028Z,100340.29
2023-04-16T04:36:03.404Z,100338.80
2023-04-16T04:38:32.361Z,100342.92
2023-04-16T04:41:00.358Z,100342.70
2023-04-16T04:43:29.540Z,100342.98
2023-04-16T04:45:58.792Z,100346.39
2023-04-16T04:48:28.635Z,100346.85
2023-04-16T04:50:58.575Z,100346.59
2023-04-16T04:53:27.795Z,100346.15
2023-04-16T04:56:01.733Z,100347.50
2023-04-16T04:58:37.589Z,100351.61
2023-04-16T05:01:06.233Z,100352.80
2023-04-16T05:03:34.699Z,100352.36
2023-04-16T05:06:03.040Z,100357.98
2023-04-16T05:08:32.343Z,100358.94
2023-04-16T05:11:00.563Z,100358.06
2023-04-16T05:13:28.747Z,100358.02
2023-04-16T05:15:56.796Z,100359.73
2023-04-16T05:18:25.127Z,100356.02
2023-04-16T05:20:52.968Z,100361.70
2023-04-16T05:23:21.261Z,100359.98
2023-04-16T05:25:50.063Z,100361.70
2023-04-16T05:28:17.984Z,100361.23
2023-04-16T05:30:46.044Z,100361.80
2023-04-16T05:33:14.841Z,100365.48
2023-04-16T05:35:43.051Z,100367.66
2023-04-16T05:38:11.357Z,100366.95
2023-04-16T05:40:40.065Z,100366.19
2023-04-16T05:43:08.163Z,100369.62
2023-04-16T05:45:41.081Z,100366.20
2023-04-16T05:48:09.534Z,100369.64
2023-04-16T05:50:37.555Z,100370.30
2023-04-16T05:53:06.445Z,100375.02
2023-04-16T05:55:36.916Z,100372.20
2023-04-16T05:58:05.287Z,100373.96
2023-04-16T06:00:33.571Z,100378.37
2023-04-16T06:03:37.476Z,100379.85
2023-04-16T06:06:04.468Z,100385.67
2023-04-16T06:08:32.732Z,100387.02
2023-04-16T06:11:00.449Z,100392.50
2023-04-16T06:13:27.257Z,100393.86
2023-04-16T06:15:54.034Z,100394.48
2023-04-16T06:18:21.418Z,100397.03
2023-04-16T06:20:48.086Z,100400.59
2023-04-16T06:23:15.596Z,100402.20
2023-04-16T06:25:43.966Z,100400.63
2023-04-16T06:28:10.464Z,100404.02
2023-04-16T06:30:38.496Z,100405.79
2023-04-16T06:33:05.122Z,100408.66
2023-04-16T06:35:31.866Z,100408.36
2023-04-16T06:37:58.559Z,100412.64
2023-04-16T06:40:26.201Z,100412.96
2023-04-16T06:42:53.165Z,100416.61
2023-04-16T06:45:20.048Z,100420.77
2023-04-16T06:47:47.436Z,100422.42
2023-04-16T06:50:14.015Z,100426.11
2023-04-16T06:52:42.210Z,100426.36
2023-04-16T06:55:09.260Z,100429.58
2023-04-16T06:57:37.356Z,100427.31
2023-04-16T07:00:04.645Z,100436.28
2023-04-16T07:02:31.579Z,100435.23
2023-04-16T07:04:58.456Z,100436.27
2023-04-16T07:07:25.263Z,100439.28
2023-04-16T07:09:52.337Z,100443.01
2023-04-16T07:12:20.795Z,100446.54
2023-04-16T07:14:49.515Z,100448.48
2023-04-16T07:17:16.015Z,100447.51
2023-04-16T07:19:43.394Z,100449.73
2023-04-16T07:22:09.955Z,100451.15
2023-04-16T07:24:36.823Z,100445.23
2023-04-16T07:27:03.434Z,100445.64
2023-04-16T07:29:30.019Z,100445.92
2023-04-16T07:31:58.192Z,100442.73
2023-04-16T07:34:24.851Z,100446.95
2023-04-16T07:36:51.347Z,100447.56
2023-04-16T07:39:17.858Z,100445.97
2023-04-16T07:41:44.697Z,100447.04
2023-04-16T07:44:11.190Z,100446.55
2023-04-16T07:46:46.406Z,100445.98
2023-04-16T07:49:14.329Z,100443.29
2023-04-16T07:51:41.114Z,100443.99
2023-04-16T07:54:07.623Z,100450.22
2023-04-16T07:56:35.278Z,100451.17
2023-04-16T07:59:14.422Z,100450.90
2023-04-16T08:01:48.202Z,100452.34
2023-04-16T08:04:16.773Z,100454.95
2023-04-16T08:06:44.762Z,100461.18
2023-04-16T08:09:11.873Z,100463.21
2023-04-16T08:11:38.546Z,100462.27
2023-04-16T08:14:05.015Z,100464.92
2023-04-16T08:16:31.697Z,100462.35
2023-04-16T08:19:00.311Z,100459.86
2023-04-16T08:21:27.435Z,100460.41
2023-04-16T08:23:54.077Z,100461.27
2023-04-16T08:26:20.584Z,100455.50
2023-04-16T08:28:47.077Z,100458.11
2023-04-16T08:31:13.620Z,100456.25
2023-04-16T08:33:40.550Z,100453.63
2023-04-16T08:36:07.040Z,100455.83
2023-04-16T08:38:34.188Z,100456.74
2023-04-16T08:41:02.523Z,100452.23
2023-04-16T08:43:29.097Z,100449.41
2023-04-16T08:45:56.340Z,100451.67
2023-04-16T08:48:22.876Z,100450.31
2023-04-16T08:50:50.049Z,100455.02
2023-04-16T08:53:18.903Z,100458.11
2023-04-16T08:55:48.859Z,100453.88
2023-04-16T08:58:17.956Z,100456.35
2023-04-16T09:00:45.643Z,100456.71
2023-04-16T09:03:12.510Z,100454.88
2023-04-16T09:05:39.289Z,100454.72
2023-04-16T09:08:06.140Z,100454.36
2023-04-16T09:10:32.899Z,100452.66
2023-04-16T09:13:00.619Z,100456.80
2023-04-16T09:15:27.368Z,100454.83
2023-04-16T09:17:53.918Z,100452.86
2023-04-16T09:20:20.662Z,100455.77
2023-04-16T09:22:47.814Z,100454.48
2023-04-16T09:25:14.715Z,100456.52
2023-04-16T09:27:41.329Z,100454.80
2023-04-16T09:30:23.251Z,100455.27
2023-04-16T09:32:50.183Z,100452.64
2023-04-16T09:35:17.751Z,100457.99
2023-04-16T09:37:46.134Z,100458.31
2023-04-16T09:40:16.533Z,100458.93
2023-04-16T09:42:43.278Z,100457.61
2023-04-16T09:45:10.000Z,100460.05
2023-04-16T09:47:43.265Z,100461.70
2023-04-16T09:50:12.485Z,100468.76
2023-04-16T09:52:39.678Z,100472.52
2023-04-16T09:55:06.704Z,100475.54
2023-04-16T09:57:36.081Z,100478.27
2023-04-16T10:00:07.081Z,100481.97
2023-04-16T10:02:34.696Z,100485.37
2023-04-16T10:05:05.458Z,100487.05
2023-04-16T10:07:35.743Z,100487.09
2023-04-16T10:10:02.428Z,100488.08
2023-04-16T10:12:29.336Z,100492.60
2023-04-16T10:14:55.791Z,100494.64
2023-04-16T10:17:23.102Z,100496.42
2023-04-16T10:19:50.233Z,100499.91
2023-04-16T10:22:17.523Z,100503.31
2023-04-16T10:24:44.411Z,100502.66
2023-04-16T10:27:11.640Z,100507.93
2023-04-16T10:29:38.215Z,100505.77
2023-04-16T10:32:04.697Z,100504.59
2023-04-16T10:34:31.629Z,100504.45
2023-04-16T10:36:58.272Z,100508.35
2023-04-16T10:39:27.065Z,100505.50
2023-04-16T10:42:07.106Z,100511.45
2023-04-16T10:44:33.607Z,100513.88
2023-04-16T10:47:00.334Z,100514.93
2023-04-16T10:49:26.911Z,100516.95
2023-04-16T10:51:54.050Z,100515.95
2023-04-16T10:54:22.354Z,100520.62
2023-04-16T10:56:49.057Z,100512.46
2023-04-16T10:59:19.312Z,100511.76
2023-04-16T11:01:46.721Z,100514.52
2023-04-16T11:04:19.398Z,100515.28
2023-04-16T11:07:04.827Z,100514.79
2023-04-16T11:09:48.980Z,100515.73
2023-04-16T11:12:16.349Z,100518.26
2023-04-16T11:14:42.886Z,100515.17
2023-04-16T11:17:09.610Z,100518.95
2023-04-16T11:19:37.423Z,100516.06
2023-04-16T11:22:03.923Z,100519.81
2023-04-16T11:24:31.960Z,100517.62
2023-04-16T11:26:58.486Z,100518.64
2023-04-16T11:29:25.142Z,100517.52
2023-04-16T11:31:52.093Z,100517.44
2023-04-16T11:34:18.989Z,100514.65
2023-04-16T11:36:45.929Z,100520.46
2023-04-16T11:39:12.995Z,100521.70
2023-04-16T11:41:49.094Z,100525.59
2023-04-16T11:44:19.748Z,100526.32
2023-04-16T11:46:46.252Z,100527.95
2023-04-16T11:49:13.047Z,100523.70
2023-04-16T11:51:40.609Z,100522.34
2023-04-16T11:54:12.102Z,100523.45
2023-04-16T11:56:38.928Z,100523.65
2023-04-16T11:59:09.618Z,100521.89
2023-04-16T12:01:36.582Z,100519.05
2023-04-16T12:04:03.405Z,100520.92
2023-04-16T12:06:31.650Z,100515.55
2023-04-16T12:08:59.007Z,100516.55
2023-04-16T12:11:41.296Z,100514.59
2023-04-16T12:14:10.996Z,100521.48
2023-04-16T12:16:37.705Z,100514.98
2023-04-16T12:19:04.506Z,100512.42
2023-04-16T12:21:40.704Z,100511.77
2023-04-16T12:24:07.716Z,100515.58
2023-04-16T12:26:38.212Z,100515.70
2023-04-16T12:29:17.473Z,100514.05
2023-04-16T12:31:44.110Z,100515.36
2023-04-16T12:34:10.851Z,100516.05
2023-04-16T12:36:37.695Z,100513.23
2023-04-16T12:39:04.549Z,100511.98
2023-04-16T12:41:31.367Z,100509.05
2023-04-16T12:44:08.582Z,100511.35
2023-04-16T12:46:37.633Z,100508.33
2023-04-16T12:49:04.564Z,100504.23
2023-04-16T12:51:31.986Z,100505.16
2023-04-16T12:53:59.026Z,100503.95
2023-04-16T12:56:25.794Z,100503.70
2023-04-16T12:58:52.528Z,100503.73
2023-04-16T13:01:19.256Z,100504.81
2023-04-16T13:03:46.229Z,100507.58
2023-04-16T13:06:13.393Z,100507.59
2023-04-16T13:08:40.758Z,100504.88
2023-04-16T13:11:07.728Z,100504.98
2023-04-16T13:13:34.471Z,100505.69
2023-04-16T13:16:03.751Z,100502.56
2023-04-16T13:18:31.600Z,100503.91
2023-04-16T13:20:58.323Z,100508.67
2023-04-16T13:23:26.383Z,100506.07
2023-04-16T13:25:54.115Z,100504.25
2023-04-16T13:28:21.036Z,100504.19
2023-04-16T13:30:48.679Z,100503.16
2023-04-16T13:33:17.545Z,100503.97
2023-04-16T13:35:48.719Z,100499.83
2023-04-16T13:38:17.659Z,100502.23
2023-04-16T13:40:46.190Z,100503.62
2023-04-16T13:43:18.703Z,100505.19
2023-04-16T13:45:47.705Z,100507.05
2023-04-16T13:48:21.768Z,100506.45
2023-04-16T13:50:50.699Z,100507.48
2023-04-16T13:53:19.716Z,100510.25
2023-04-16T13:55:49.700Z,100506.21
2023-04-16T13:58:18.714Z,100507.79
2023-04-16T14:00:47.351Z,100503.81
2023-04-16T14:03:16.360Z,100505.50
2023-04-16T14:05:45.990Z,100508.14
2023-04-16T14:08:16.274Z,100507.73
2023-04-16T14:10:45.743Z,100507.80
2023-04-16T14:13:16.764Z,100506.25
2023-04-16T14:15:45.732Z,100508.99
2023-04-16T14:18:13.950Z,100503.32
2023-04-16T14:20:42.722Z,100500.13
2023-04-16T14:23:12.731Z,100497.63
2023-04-16T14:25:41.188Z,100502.01
2023-04-16T14:28:09.745Z,100499.25
2023-04-16T14:38:22.607Z,100502.82
2023-04-16T14:40:50.509Z,100498.27
2023-04-16T14:43:18.440Z,100498.88
2023-04-16T14:45:46.992Z,100503.08
2023-04-16T14:48:15.111Z,100503.52
2023-04-16T14:50:44.287Z,100506.27
2023-04-16T14:53:12.187Z,100507.63
2023-04-16T14:55:40.216Z,100509.65
2023-04-16T14:58:08.337Z,100513.39
2023-04-16T15:00:37.174Z,100507.25
2023-04-16T15:03:06.068Z,100508.95
2023-04-16T15:05:35.928Z,100507.90
2023-04-16T15:08:05.585Z,100508.02
2023-04-16T15:10:37.361Z,100504.59
2023-04-16T15:13:06.090Z,100504.48
2023-04-16T15:15:34.493Z,100500.71
2023-04-16T15:18:02.527Z,100500.73
2023-04-16T15:20:30.904Z,100499.90
2023-04-16T15:22:59.031Z,100498.10
2023-04-16T15:25:27.178Z,100497.66
2023-04-16T15:27:55.169Z,100495.38
2023-04-16T15:30:23.513Z,100491.98
2023-04-16T15:32:51.650Z,100495.86
2023-04-16T15:35:19.753Z,100493.02
2023-04-16T15:37:47.692Z,100495.14
2023-04-16T15:40:18.781Z,100499.86
2023-04-16T15:42:46.753Z,100500.73
2023-04-16T15:45:14.807Z,100501.05
2023-04-16T15:47:45.453Z,100505.39
2023-04-16T15:50:13.645Z,100499.86
2023-04-16T15:52:43.236Z,100503.18
2023-04-16T15:55:11.241Z,100504.36
2023-04-16T15:57:39.575Z,100498.12
2023-04-16T16:00:16.270Z,100504.06
2023-04-16T16:02:48.014Z,100505.64
2023-04-16T16:05:20.711Z,100505.27
2023-04-16T16:07:52.239Z,100506.79
2023-04-16T16:10:20.519Z,100506.84
2023-04-16T16:13:11.844Z,100512.00
2023-04-16T16:15:43.929Z,100510.55
2023-04-16T16:18:13.348Z,100516.91
2023-04-16T16:20:41.430Z,100516.30
2023-04-16T16:23:09.643Z,100517.19
2023-04-16T16:25:38.101Z,100515.18
2023-04-16T16:28:06.721Z,100518.63
2023-04-16T16:30:35.161Z,100519.20
2023-04-16T16:33:03.420Z,100519.83
2023-04-16T16:35:31.664Z,100517.90
2023-04-16T16:37:59.818Z,100517.54
2023-04-16T16:40:28.075Z,100516.58
2023-04-16T16:42:57.106Z,100517.45
2023-04-16T16:45:27.306Z,100518.98
2023-04-16T16:47:55.666Z,100518.51
2023-04-16T16:50:24.108Z,100518.02
2023-04-16T16:52:52.152Z,100519.34
2023-04-16T16:55:21.021Z,100518.47
2023-04-16T16:57:49.564Z,100517.02
2023-04-16T17:00:20.112Z,100515.48
2023-04-16T17:02:51.192Z,100520.39
2023-04-16T17:05:19.372Z,100521.31
2023-04-16T17:07:49.478Z,100525.92
2023-04-16T17:10:20.967Z,100524.51
2023-04-16T17:12:49.530Z,100526.21
2023-04-16T17:15:20.571Z,100531.86
2023-04-16T17:17:49.822Z,100535.89
2023-04-16T17:20:18.214Z,100538.30
2023-04-16T17:22:46.358Z,100540.05
2023-04-16T17:25:14.332Z,100543.67
2023-04-16T17:27:42.462Z,100543.38
2023-04-16T17:30:11.064Z,100545.27
2023-04-16T17:32:39.147Z,100543.66
2023-04-16T17:35:09.455Z,100544.14
2023-04-16T17:37:37.600Z,100546.54
2023-04-16T17:40:07.693Z,100547.83
2023-04-16T17:42:36.700Z,100549.23
2023-04-16T17:45:05.374Z,100553.17
2023-04-16T17:47:37.072Z,100559.48
2023-04-16T17:50:05.759Z,100552.11
2023-04-16T18:00:21.228Z,100560.09
2023-04-16T18:02:49.512Z,100560.63
2023-04-16T18:05:19.866Z,100563.10
2023-04-16T18:07:53.676Z,100564.48
2023-04-16T18:10:21.939Z,100565.52
2023-04-16T18:12:50.064Z,100569.88
2023-04-16T18:15:18.089Z,100569.27
2023-04-16T18:17:46.898Z,100567.77
2023-04-16T18:20:19.600Z,100569.91
2023-04-16T18:22:49.129Z,100567.77
2023-04-16T18:25:17.542Z,100570.35
2023-04-16T18:27:47.365Z,100569.77
2023-04-16T18:30:22.075Z,100571.88
2023-04-16T18:33:16.634Z,100572.55
2023-04-16T18:35:42.679Z,100570.21
2023-04-16T18:38:13.265Z,100569.68
2023-04-16T18:40:42.931Z,100566.79
2023-04-16T18:43:12.610Z,100568.95
2023-04-16T18:45:41.031Z,100569.28
2023-04-16T18:48:09.035Z,100572.28
2023-04-16T18:50:37.758Z,100567.90
2023-04-16T18:53:05.820Z,100566.23
2023-04-16T18:55:34.009Z,100567.67
2023-04-16T18:58:02.402Z,100563.64
2023-04-16T19:00:30.695Z,100566.22
2023-04-16T19:02:59.286Z,100565.20
2023-04-16T19:05:27.429Z,100562.76
2023-04-16T19:07:55.817Z,100563.81
2023-04-16T19:10:23.808Z,100567.13
2023-04-16T19:12:51.861Z,100567.08
2023-04-16T19:15:20.422Z,100564.07
2023-04-16T19:17:48.398Z,100560.75
2023-04-16T19:20:16.410Z,100561.91
2023-04-16T19:22:44.976Z,100560.11
2023-04-16T19:25:13.039Z,100559.38
2023-04-16T19:27:41.603Z,100559.73
2023-04-16T19:30:09.866Z,100560.05
2023-04-16T19:32:40.225Z,100561.15
2023-04-16T19:35:08.756Z,100556.94
2023-04-16T19:37:37.250Z,100557.22
2023-04-16T19:40:06.342Z,100549.89
2023-04-16T19:42:34.401Z,100551.37
2023-04-16T19:45:03.137Z,100554.77
2023-04-16T19:47:31.250Z,100549.40
2023-04-16T19:49:59.451Z,100548.55
2023-04-16T19:52:27.419Z,100549.20
2023-04-16T19:54:55.824Z,100545.64
2023-04-16T19:57:23.873Z,100551.48
2023-04-16T19:59:53.535Z,100552.48
2023-04-16T20:02:23.203Z,100552.28
2023-04-16T20:04:53.202Z,100553.60
2023-04-16T20:07:21.413Z,100553.06
2023-04-16T20:09:49.581Z,100548.92
2023-04-16T20:12:18.690Z,100549.52
2023-04-16T20:14:47.414Z,100549.54
2023-04-16T20:17:18.760Z,100549.23
2023-04-16T20:19:47.751Z,100546.75
2023-04-16T20:22:18.217Z,100546.41
2023-04-16T20:24:49.462Z,100544.34
2023-04-16T20:27:19.834Z,100544.98
2023-04-16T20:29:47.972Z,100543.41
2023-04-16T20:32:15.939Z,100542.48
2023-04-16T20:34:44.387Z,100543.73
2023-04-16T20:37:12.353Z,100542.73
2023-04-16T20:39:42.232Z,100540.27
2023-04-16T20:42:12.936Z,100542.56
2023-04-16T20:44:40.885Z,100538.73
2023-04-16T20:47:11.591Z,100537.42
2023-04-16T20:49:40.344Z,100539.38
2023-04-16T20:52:08.503Z,100532.86
2023-04-16T20:54:36.879Z,100533.78
2023-04-16T20:57:05.161Z,100533.75
2023-04-16T20:59:34.352Z,100530.38
2023-04-16T21:02:02.550Z,100532.16
2023-04-16T21:04:31.088Z,100531.27
2023-04-16T21:07:03.304Z,100530.64
2023-04-16T21:09:31.698Z,100525.06
2023-04-16T21:12:03.038Z,100531.46
2023-04-16T21:14:31.191Z,100528.85
2023-04-16T21:16:59.202Z,100526.49
2023-04-16T21:19:27.124Z,100524.27
2023-04-16T21:21:55.498Z,100524.84
2023-04-16T21:24:23.964Z,100522.88
2023-04-16T21:26:52.017Z,100523.27
2023-04-16T21:29:20.378Z,100517.85
2023-04-16T21:31:48.465Z,100518.82
2023-04-16T21:34:16.680Z,100512.23
2023-04-16T21:36:44.644Z,100512.02
2023-04-16T21:39:12.840Z,100508.58
2023-04-16T21:41:41.070Z,100505.02
2023-04-16T21:44:09.227Z,100499.78
2023-04-16T21:46:37.636Z,100498.64
2023-04-16T21:49:06.255Z,100498.45
2023-04-16T21:51:34.714Z,100496.95
2023-04-16T21:54:03.163Z,100492.20
2023-04-16T21:56:31.568Z,100491.60
2023-04-16T21:58:59.855Z,100490.14
2023-04-16T22:01:27.995Z,100487.60
2023-04-16T22:03:56.264Z,100487.06
2023-04-16T22:06:24.432Z,100488.20
2023-04-16T22:08:53.665Z,100485.70
2023-04-16T22:11:21.618Z,100487.02
2023-04-16T22:13:50.389Z,100486.28
2023-04-16T22:16:18.521Z,100483.27
2023-04-16T22:18:47.539Z,100486.67
2023-04-16T22:21:15.671Z,100487.33
2023-04-16T22:23:43.734Z,100483.40
2023-04-16T22:26:13.198Z,100486.28
2023-04-16T22:28:41.396Z,100485.02
2023-04-16T22:31:10.260Z,100480.57
2023-04-16T22:33:38.326Z,100480.60
2023-04-16T22:36:06.921Z,100477.08
2023-04-16T22:38:34.839Z,100477.60
2023-04-16T22:41:02.847Z,100481.75
2023-04-16T22:43:31.275Z,100478.23
2023-04-16T22:46:04.838Z,100477.54
2023-04-16T22:48:38.007Z,100470.38
2023-04-16T22:51:07.485Z,100466.88
2023-04-16T22:53:36.942Z,100464.46
2023-04-16T22:56:05.615Z,100465.89
2023-04-16T22:58:33.605Z,100469.77
2023-04-16T23:01:02.035Z,100468.21
2023-04-16T23:03:30.872Z,100471.04
2023-04-16T23:05:59.199Z,100468.75
2023-04-16T23:08:27.648Z,100467.92
2023-04-16T23:10:55.720Z,100465.54
2023-04-16T23:13:23.704Z,100466.14
2023-04-16T23:15:51.720Z,100467.64
2023-04-16T23:18:20.517Z,100461.86
2023-04-16T23:20:54.809Z,100458.56
2023-04-16T23:23:24.564Z,100454.90
2023-04-16T23:25:53.579Z,100451.88
2023-04-16T23:28:22.594Z,100447.92
2023-04-16T23:30:53.670Z,100443.70
2023-04-16T23:33:22.059Z,100440.77
2023-04-16T23:35:49.963Z,100441.02
2023-04-16T23:38:17.808Z,100439.38
2023-04-16T23:40:45.627Z,100435.48
2023-04-16T23:43:13.450Z,100436.27
2023-04-16T23:45:41.425Z,100435.06
2023-04-16T23:48:09.273Z,100432.76
2023-04-16T23:50:37.169Z,100434.86
2023-04-16T23:53:05.132Z,100430.44
2023-04-16T23:55:33.233Z,100433.02
2023-04-16T23:58:01.399Z,100432.51
